Time;durP1;ratioP1;P1;durP2;ratioP2;P2;SDS_P1;SDS_P2;PMS_P1;PMS_P2;Temp;Humidity;BMP_temperature;BMP_pressure;BME280_temperature;BME280_humidity;BME280_pressure;Samples;Min_cycle;Max_cycle;Signal;HPM_P1;HPM_P2
2024/01/10 00:01:19;;;;;;;7.57;1.90;;;;;;;-1.20;85.15;101735.63;5074585;28;20036;-67
2024/01/10 00:03:44;;;;;;;9.05;3.40;;;;;;;-1.10;81.74;101744.75;5069385;28;20077;-67
2024/01/10 00:06:10;;;;;;;5.57;1.65;;;;;;;-0.78;80.50;101740.50;5073453;28;20028;-67
2024/01/10 00:08:36;;;;;;;9.05;3.03;;;;;;;-0.65;81.45;101726.50;5070271;28;20040;-67
2024/01/10 00:11:01;;;;;;;5.35;2.17;;;;;;;-0.69;81.40;101727.44;5077053;28;20032;-67
2024/01/10 00:13:27;;;;;;;7.43;1.92;;;;;;;-0.77;80.00;101745.56;5071292;28;20053;-67
2024/01/10 00:15:53;;;;;;;3.33;1.58;;;;;;;-0.78;80.15;101749.00;5072057;28;20032;-66
2024/01/10 00:18:18;;;;;;;4.47;1.98;;;;;;;-0.83;81.92;101734.66;5071474;28;20036;-67
2024/01/10 00:20:44;;;;;;;5.28;1.77;;;;;;;-0.76;81.21;101729.34;5069930;28;20081;-67
2024/01/10 00:23:09;;;;;;;4.00;2.05;;;;;;;-0.77;81.48;101732.78;5071737;28;20032;-67
2024/01/10 00:25:35;;;;;;;5.68;2.13;;;;;;;-0.77;82.13;101730.22;5069603;28;20500;-67
2024/01/10 00:28:00;;;;;;;6.47;2.10;;;;;;;-0.73;82.24;101730.97;5071573;28;20040;-67
2024/01/10 00:30:26;;;;;;;8.00;2.08;;;;;;;-0.72;82.39;101730.94;5070262;28;20032;-67
2024/01/10 00:32:51;;;;;;;4.65;1.52;;;;;;;-0.77;81.88;101737.06;5071582;28;20033;-67
2024/01/10 00:35:17;;;;;;;4.25;1.58;;;;;;;-0.81;81.67;101748.25;5074954;28;20030;-67
2024/01/10 00:37:42;;;;;;;10.73;2.67;;;;;;;-0.88;82.88;101741.59;5068785;28;20040;-67
2024/01/10 00:40:08;;;;;;;4.38;2.15;;;;;;;-0.97;82.78;101745.28;5069185;28;20088;-67
2024/01/10 00:42:33;;;;;;;4.75;2.10;;;;;;;-1.09;83.37;101743.03;5068599;28;20040;-67
2024/01/10 00:44:59;;;;;;;9.10;2.22;;;;;;;-1.18;83.99;101749.22;5068854;28;20020;-67
2024/01/10 00:47:24;;;;;;;7.20;2.53;;;;;;;-1.27;82.73;101744.31;5069913;28;20044;-67
2024/01/10 00:49:50;;;;;;;9.40;2.65;;;;;;;-1.25;84.12;101746.84;5072311;28;20028;-66
2024/01/10 00:52:15;;;;;;;5.57;1.83;;;;;;;-1.33;84.90;101749.59;5071319;28;20032;-67
2024/01/10 00:54:41;;;;;;;9.80;1.90;;;;;;;-1.40;85.26;101742.94;5069908;28;20102;-67
2024/01/10 00:57:06;;;;;;;6.35;2.00;;;;;;;-1.49;85.98;101740.63;5069204;28;20482;-67
2024/01/10 00:59:32;;;;;;;9.93;2.97;;;;;;;-1.55;86.73;101739.06;5069903;28;20530;-67
2024/01/10 01:01:57;;;;;;;11.77;2.72;;;;;;;-1.54;87.57;101739.91;5071105;28;20024;-67
2024/01/10 01:04:22;;;;;;;7.45;2.70;;;;;;;-1.61;87.87;101741.75;5069515;28;20329;-66
2024/01/10 01:06:48;;;;;;;11.00;3.13;;;;;;;-1.72;87.71;101742.00;5070517;28;20046;-67
2024/01/10 01:09:15;;;;;;;10.05;3.03;;;;;;;-1.75;88.37;101741.22;5073164;28;20047;-68
2024/01/10 01:11:41;;;;;;;5.35;2.17;;;;;;;-1.82;88.83;101732.88;5070935;28;20028;-67
2024/01/10 01:14:07;;;;;;;6.22;3.08;;;;;;;-1.84;89.13;101739.72;5073719;28;20533;-67
2024/01/10 01:16:33;;;;;;;9.50;2.85;;;;;;;-1.85;89.42;101744.88;5072819;28;20033;-67
2024/01/10 01:18:58;;;;;;;15.05;3.45;;;;;;;-1.86;90.37;101733.81;5074092;28;20032;-67
2024/01/10 01:21:24;;;;;;;7.57;2.72;;;;;;;-1.82;90.89;101739.69;5069789;28;20120;-67
2024/01/10 01:23:49;;;;;;;5.80;2.58;;;;;;;-1.84;89.70;101744.84;5072433;28;20461;-67
2024/01/10 01:26:14;;;;;;;10.75;3.13;;;;;;;-1.85;88.91;101738.03;5070404;28;20072;-67
2024/01/10 01:28:40;;;;;;;12.35;3.03;;;;;;;-1.83;89.43;101732.91;5068275;28;20039;-67
2024/01/10 01:31:05;;;;;;;10.45;3.25;;;;;;;-1.88;89.34;101730.44;5072246;28;20036;-67
2024/01/10 01:33:31;;;;;;;8.55;2.65;;;;;;;-1.92;89.80;101722.91;5068842;28;20489;-67
2024/01/10 01:35:56;;;;;;;9.38;2.40;;;;;;;-1.97;90.72;101732.38;5073937;28;20583;-67
2024/01/10 01:38:22;;;;;;;8.93;2.63;;;;;;;-2.00;91.46;101728.19;5070754;28;20114;-67
2024/01/10 01:40:47;;;;;;;8.23;2.80;;;;;;;-2.05;91.88;101730.84;5070174;28;20052;-67
2024/01/10 01:43:25;;;;;;;7.03;2.83;;;;;;;-2.05;92.36;101722.34;5068636;28;20478;-67
2024/01/10 01:45:56;;;;;;;8.63;3.47;;;;;;;-2.05;91.99;101715.53;5071964;28;20024;-67
2024/01/10 01:48:22;;;;;;;8.35;2.80;;;;;;;-1.97;90.37;101719.63;5075225;28;20137;-67
2024/01/10 01:50:52;;;;;;;6.70;2.90;;;;;;;-1.94;91.41;101719.56;5070804;28;20123;-67
2024/01/10 01:53:18;;;;;;;7.30;2.58;;;;;;;-1.94;90.66;101714.44;5069711;28;20534;-67
2024/01/10 01:55:45;;;;;;;4.88;2.60;;;;;;;-1.96;90.22;101705.97;5076170;28;20052;-67
2024/01/10 01:58:12;;;;;;;8.13;2.60;;;;;;;-1.97;90.11;101702.59;5069854;28;20381;-67
2024/01/10 02:00:38;;;;;;;5.15;2.08;;;;;;;-1.97;89.93;101709.41;5066199;28;20107;-67
2024/01/10 02:03:09;;;;;;;9.02;2.85;;;;;;;-1.98;90.66;101700.91;5066054;28;20073;-67
2024/01/10 02:05:35;;;;;;;6.28;1.80;;;;;;;-1.90;91.05;101705.84;5068773;28;20037;-67
2024/01/10 02:08:00;;;;;;;10.13;1.85;;;;;;;-1.83;89.00;101697.97;5069934;28;20035;-67
2024/01/10 02:10:26;;;;;;;8.50;2.25;;;;;;;-1.81;88.25;101706.44;5069435;28;20603;-66
2024/01/10 02:12:51;;;;;;;7.07;2.22;;;;;;;-1.70;87.76;101709.59;5066818;28;20085;-67
2024/01/10 02:15:17;;;;;;;7.63;2.30;;;;;;;-1.62;88.30;101721.34;5074721;28;20103;-67
2024/01/10 02:17:43;;;;;;;5.95;1.73;;;;;;;-1.66;87.88;101710.34;5071362;28;25153;-67
2024/01/10 02:20:18;;;;;;;5.70;1.55;;;;;;;-1.64;87.95;101713.72;5075469;28;20123;-67
2024/01/10 02:22:43;;;;;;;8.30;2.10;;;;;;;-1.59;86.96;101718.72;5067824;28;20041;-67
2024/01/10 02:25:10;;;;;;;7.88;1.95;;;;;;;-1.62;86.99;101713.69;5068765;28;20029;-67
2024/01/10 02:27:36;;;;;;;6.95;1.10;;;;;;;-1.74;82.33;101715.66;5067895;28;20401;-67
2024/01/10 02:30:03;;;;;;;5.28;1.83;;;;;;;-1.64;83.86;101712.88;5067614;28;20033;-68
2024/01/10 02:32:28;;;;;;;5.22;1.27;;;;;;;-1.65;85.45;101711.19;5067625;28;20441;-67
2024/01/10 02:34:54;;;;;;;8.75;2.45;;;;;;;-1.75;86.06;101716.53;5066864;28;20140;-67
2024/01/10 02:37:19;;;;;;;3.47;1.35;;;;;;;-1.87;86.90;101711.69;5074584;28;20047;-67
2024/01/10 02:39:45;;;;;;;2.22;1.17;;;;;;;-1.96;85.86;101721.31;5073718;28;20481;-67
2024/01/10 02:42:10;;;;;;;5.03;1.58;;;;;;;-1.94;86.34;101720.41;5071630;28;20036;-67
2024/01/10 02:44:35;;;;;;;5.30;1.92;;;;;;;-1.93;87.65;101721.22;5069763;28;20108;-67
2024/01/10 02:47:01;;;;;;;6.07;1.88;;;;;;;-1.89;87.34;101717.75;5072188;28;20024;-67
2024/01/10 02:49:26;;;;;;;5.68;1.77;;;;;;;-2.02;85.15;101719.72;5068961;28;20024;-67
2024/01/10 02:51:52;;;;;;;4.95;2.13;;;;;;;-2.05;86.76;101724.91;5067154;28;20032;-68
2024/01/10 02:54:17;;;;;;;8.02;2.70;;;;;;;-2.05;87.84;101715.53;5072847;28;20036;-67
2024/01/10 02:56:43;;;;;;;9.07;2.88;;;;;;;-1.99;88.41;101714.53;5070058;28;20041;-67
2024/01/10 02:59:08;;;;;;;5.25;1.30;;;;;;;-1.98;87.97;101708.56;5068241;28;20052;-67
2024/01/10 03:01:34;;;;;;;7.97;2.92;;;;;;;-2.06;87.71;101718.94;5072357;28;20035;-67
2024/01/10 03:03:59;;;;;;;7.32;1.95;;;;;;;-2.14;88.66;101709.78;5068859;28;20040;-67
2024/01/10 03:06:25;;;;;;;8.02;1.70;;;;;;;-2.13;89.62;101714.00;5069326;28;20389;-67
2024/01/10 03:08:51;;;;;;;5.93;1.90;;;;;;;-2.18;89.05;101713.25;5073391;28;20032;-67
2024/01/10 03:11:16;;;;;;;8.70;1.88;;;;;;;-2.22;89.14;101709.94;5077032;28;20043;-67
2024/01/10 03:13:45;;;;;;;4.45;2.33;;;;;;;-2.27;89.77;101710.91;5071066;28;20032;-67
2024/01/10 03:16:11;;;;;;;4.28;1.20;;;;;;;-2.32;90.61;101708.44;5072926;28;20408;-67
2024/01/10 03:18:36;;;;;;;9.65;1.75;;;;;;;-2.36;91.01;101712.78;5071831;28;20066;-67
2024/01/10 03:21:01;;;;;;;7.38;1.95;;;;;;;-2.37;91.00;101716.22;5074497;28;20050;-67
2024/01/10 03:23:27;;;;;;;2.50;1.45;;;;;;;-2.30;91.48;101716.91;5071944;28;20060;-67
2024/01/10 03:25:53;;;;;;;5.18;1.58;;;;;;;-2.31;92.15;101712.69;5076787;28;20094;-67
2024/01/10 03:28:18;;;;;;;5.80;1.70;;;;;;;-2.35;91.14;101718.72;5076550;28;20085;-67
2024/01/10 03:30:45;;;;;;;6.03;1.58;;;;;;;-2.38;91.44;101708.59;5075358;28;20043;-68
2024/01/10 03:33:11;;;;;;;9.73;1.90;;;;;;;-2.44;91.92;101719.78;5070461;28;20051;-67
2024/01/10 03:35:36;;;;;;;6.30;1.45;;;;;;;-2.49;91.91;101726.69;5072798;28;20024;-67
2024/01/10 03:38:02;;;;;;;4.90;1.55;;;;;;;-2.52;92.21;101726.75;5072082;28;20040;-67
2024/01/10 03:40:27;;;;;;;6.65;1.52;;;;;;;-2.53;91.21;101734.44;5077233;28;20047;-67
2024/01/10 03:42:53;;;;;;;4.60;1.90;;;;;;;-2.53;91.93;101724.22;5072022;28;20028;-67
2024/01/10 03:45:20;;;;;;;7.00;1.88;;;;;;;-2.49;92.50;101736.06;5077003;28;20179;-67
2024/01/10 03:47:49;;;;;;;8.88;2.65;;;;;;;-2.48;92.07;101730.91;5076313;28;20130;-67
2024/01/10 03:50:16;;;;;;;7.15;2.15;;;;;;;-2.49;92.07;101731.78;5077036;28;20039;-67
2024/01/10 03:52:43;;;;;;;4.65;2.00;;;;;;;-2.48;92.55;101738.56;5073087;28;20124;-67
2024/01/10 03:55:09;;;;;;;3.38;2.00;;;;;;;-2.52;92.67;101734.41;5071623;28;20091;-67
2024/01/10 03:57:34;;;;;;;7.25;2.05;;;;;;;-2.55;93.11;101742.13;5070138;28;20449;-67
2024/01/10 04:00:00;;;;;;;4.22;1.83;;;;;;;-2.51;93.67;101750.56;5070984;28;20128;-67
2024/01/10 04:02:27;;;;;;;6.03;1.63;;;;;;;-2.52;93.11;101746.31;5075527;28;20393;-66
2024/01/10 04:04:53;;;;;;;7.47;1.80;;;;;;;-2.50;92.83;101744.56;5071024;28;20036;-67
2024/01/10 04:07:19;;;;;;;6.57;1.77;;;;;;;-2.53;92.77;101745.47;5077295;28;20035;-67
2024/01/10 04:09:44;;;;;;;3.35;1.27;;;;;;;-2.58;92.25;101744.72;5077927;28;20024;-67
2024/01/10 04:12:10;;;;;;;4.97;1.63;;;;;;;-2.59;92.97;101737.94;5071210;28;20032;-67
2024/01/10 04:14:35;;;;;;;5.65;1.83;;;;;;;-2.62;93.25;101745.66;5071257;28;20106;-67
2024/01/10 04:17:01;;;;;;;6.97;2.03;;;;;;;-2.57;92.57;101748.97;5073911;28;20165;-66
2024/01/10 04:19:26;;;;;;;7.38;2.30;;;;;;;-2.58;92.45;101744.72;5075731;28;20043;-67
2024/01/10 04:21:52;;;;;;;4.65;1.90;;;;;;;-2.62;92.80;101740.53;5071153;28;20033;-67
2024/01/10 04:24:18;;;;;;;5.97;1.98;;;;;;;-2.60;92.85;101746.47;5076794;28;20507;-67
2024/01/10 04:26:44;;;;;;;5.60;2.00;;;;;;;-2.52;91.59;101747.16;5078851;28;20166;-67
2024/01/10 04:29:09;;;;;;;9.73;2.88;;;;;;;-2.54;91.85;101743.78;5072871;28;20032;-67
2024/01/10 04:31:35;;;;;;;3.45;1.55;;;;;;;-2.59;92.32;101745.59;5070864;28;20081;-67
2024/01/10 04:34:01;;;;;;;8.85;3.13;;;;;;;-2.63;92.15;101743.97;5079567;28;20068;-67
2024/01/10 04:36:27;;;;;;;7.13;1.63;;;;;;;-2.68;92.48;101755.97;5073608;28;20427;-67
2024/01/10 04:38:53;;;;;;;13.98;2.38;;;;;;;-2.73;92.39;101747.56;5071475;28;20119;-67
2024/01/10 04:41:19;;;;;;;5.45;2.03;;;;;;;-2.71;93.55;101750.91;5078231;28;20050;-66
2024/01/10 04:43:45;;;;;;;10.82;2.13;;;;;;;-2.69;93.82;101749.19;5070101;28;20031;-67
2024/01/10 04:46:10;;;;;;;5.40;2.17;;;;;;;-2.71;93.83;101751.75;5068360;28;20037;-67
2024/01/10 04:48:37;;;;;;;7.57;2.08;;;;;;;-2.68;94.73;101745.75;5074203;28;20048;-67
2024/01/10 04:51:03;;;;;;;11.65;1.60;;;;;;;-2.70;94.02;101752.59;5072281;28;20086;-67
2024/01/10 04:53:28;;;;;;;3.78;1.77;;;;;;;-2.69;93.48;101759.38;5069366;28;20772;-67
2024/01/10 04:55:53;;;;;;;7.70;1.98;;;;;;;-2.67;93.89;101760.19;5072580;28;20039;-67
2024/01/10 04:58:19;;;;;;;5.53;1.70;;;;;;;-2.63;94.80;101766.09;5074394;28;20481;-67
2024/01/10 05:00:45;;;;;;;9.98;2.42;;;;;;;-2.66;94.57;101772.09;5069365;28;20054;-67
2024/01/10 05:03:10;;;;;;;6.93;2.28;;;;;;;-2.68;90.49;101771.28;5074999;28;20386;-67
2024/01/10 05:05:35;;;;;;;5.55;2.13;;;;;;;-2.60;91.42;101784.75;5072054;28;20032;-67
2024/01/10 05:08:01;;;;;;;4.57;1.42;;;;;;;-2.61;91.99;101772.00;5070346;28;20028;-67
2024/01/10 05:10:27;;;;;;;5.65;1.75;;;;;;;-2.65;92.61;101771.22;5068938;28;21259;-67
2024/01/10 05:12:53;;;;;;;6.47;2.55;;;;;;;-2.67;93.12;101772.97;5071079;28;20031;-67
2024/01/10 05:15:19;;;;;;;6.68;2.03;;;;;;;-2.70;90.65;101786.63;5072847;28;20024;-67
2024/01/10 05:17:44;;;;;;;4.47;2.30;;;;;;;-2.60;91.28;101778.78;5070048;28;20040;-67
2024/01/10 05:20:10;;;;;;;8.32;2.05;;;;;;;-2.63;91.61;101782.25;5075343;28;20036;-67
2024/01/10 05:22:36;;;;;;;7.47;1.73;;;;;;;-2.52;92.60;101772.69;5074815;28;20568;-67
2024/01/10 05:25:02;;;;;;;4.43;1.92;;;;;;;-2.48;92.67;101778.56;5071551;28;20064;-67
2024/01/10 05:27:27;;;;;;;6.82;3.10;;;;;;;-2.50;92.63;101782.84;5067927;28;20075;-67
2024/01/10 05:29:53;;;;;;;7.20;3.03;;;;;;;-2.49;91.72;101782.81;5069005;28;20555;-67
2024/01/10 05:32:18;;;;;;;7.70;2.75;;;;;;;-2.42;91.76;101788.66;5067552;28;20042;-67
2024/01/10 05:34:44;;;;;;;6.65;2.10;;;;;;;-2.39;91.34;101789.44;5074492;28;20123;-67
2024/01/10 05:37:10;;;;;;;7.15;3.30;;;;;;;-2.38;91.57;101790.28;5073864;28;20083;-67
2024/01/10 05:39:35;;;;;;;8.75;2.28;;;;;;;-2.38;90.89;101798.78;5072090;28;20547;-67
2024/01/10 05:42:02;;;;;;;5.03;1.55;;;;;;;-2.27;90.13;101802.81;5074048;28;20123;-67
2024/01/10 05:44:28;;;;;;;4.60;2.45;;;;;;;-2.20;90.30;101804.38;5070573;28;20063;-68
2024/01/10 05:46:54;;;;;;;7.18;2.55;;;;;;;-2.13;89.49;101806.78;5071443;28;20028;-68
2024/01/10 05:49:19;;;;;;;6.32;2.10;;;;;;;-2.03;89.32;101803.16;5072575;28;20032;-67
2024/01/10 05:51:44;;;;;;;9.73;2.53;;;;;;;-1.94;88.20;101804.69;5068928;28;20040;-68
2024/01/10 05:54:10;;;;;;;7.97;2.47;;;;;;;-1.92;87.37;101800.38;5073702;28;20037;-67
2024/01/10 05:56:35;;;;;;;6.97;1.98;;;;;;;-1.96;87.64;101809.00;5068684;28;20070;-68
2024/01/10 05:59:01;;;;;;;6.18;1.75;;;;;;;-1.89;87.39;101813.06;5064995;28;20176;-67
2024/01/10 06:01:27;;;;;;;8.90;2.10;;;;;;;-1.88;87.03;101809.63;5064802;28;20505;-67
2024/01/10 06:03:52;;;;;;;5.22;2.08;;;;;;;-1.87;86.76;101798.53;5066472;28;20043;-67
2024/01/10 06:06:18;;;;;;;9.02;2.55;;;;;;;-1.79;84.29;101804.34;5071137;28;20032;-67
2024/01/10 06:08:43;;;;;;;6.88;1.92;;;;;;;-1.72;85.03;101805.88;5067655;28;20389;-67
2024/01/10 06:11:09;;;;;;;13.43;2.03;;;;;;;-1.63;85.07;101821.91;5072736;28;20027;-67
2024/01/10 06:13:36;;;;;;;6.80;2.38;;;;;;;-1.65;83.93;101818.53;5067267;28;20506;-67
2024/01/10 06:16:02;;;;;;;6.20;2.08;;;;;;;-1.72;85.00;101812.72;5070351;28;20033;-67
2024/01/10 06:18:28;;;;;;;6.63;2.42;;;;;;;-1.79;85.10;101817.09;5070774;28;20028;-67
2024/01/10 06:20:53;;;;;;;6.57;2.03;;;;;;;-1.79;85.11;101822.22;5070852;28;20127;-67
2024/01/10 06:23:19;;;;;;;7.15;1.75;;;;;;;-1.76;85.15;101827.25;5068939;28;20056;-67
2024/01/10 06:25:44;;;;;;;3.70;1.70;;;;;;;-1.67;84.27;101834.75;5063892;28;20102;-67
2024/01/10 06:28:10;;;;;;;9.15;2.50;;;;;;;-1.65;85.03;101833.88;5073340;28;20028;-66
2024/01/10 06:30:35;;;;;;;7.75;1.88;;;;;;;-1.59;84.15;101852.47;5070808;28;20036;-67
2024/01/10 06:33:01;;;;;;;10.85;2.20;;;;;;;-1.57;83.10;101855.81;5069332;28;20032;-67
2024/01/10 06:35:26;;;;;;;6.55;2.25;;;;;;;-1.55;84.16;101843.00;5070743;28;20029;-67
2024/01/10 06:37:52;;;;;;;5.72;2.10;;;;;;;-1.62;84.33;101839.75;5067600;28;20044;-67
2024/01/10 06:40:18;;;;;;;12.43;3.03;;;;;;;-1.68;84.85;101855.22;5063774;28;20025;-67
2024/01/10 06:42:43;;;;;;;7.72;2.45;;;;;;;-1.67;84.99;101856.91;5067968;28;20480;-67
2024/01/10 06:45:11;;;;;;;7.47;2.72;;;;;;;-1.65;84.99;101849.19;5069572;28;20140;-67
2024/01/10 06:47:37;;;;;;;11.23;3.00;;;;;;;-1.69;85.05;101851.81;5068953;28;20028;-67
2024/01/10 06:50:05;;;;;;;17.77;3.08;;;;;;;-1.72;85.39;101859.53;5074842;28;20501;-67
2024/01/10 06:52:31;;;;;;;17.60;2.75;;;;;;;-1.64;85.74;101866.22;5068962;28;20035;-67
2024/01/10 06:54:57;;;;;;;7.57;2.08;;;;;;;-1.48;84.30;101857.34;5070908;28;20516;-67
2024/01/10 06:57:22;;;;;;;9.38;3.45;;;;;;;-1.40;83.96;101855.44;5069488;28;20029;-68
2024/01/10 06:59:48;;;;;;;8.05;2.45;;;;;;;-1.37;80.84;101855.38;5068203;28;20163;-67
2024/01/10 07:02:14;;;;;;;10.88;2.50;;;;;;;-1.12;81.23;101860.75;5069177;28;20040;-67
2024/01/10 07:04:40;;;;;;;5.53;2.25;;;;;;;-1.07;81.17;101869.16;5071580;28;20024;-67
2024/01/10 07:07:08;;;;;;;8.02;2.25;;;;;;;-1.08;81.26;101881.13;5069240;28;20362;-67
2024/01/10 07:09:33;;;;;;;8.85;2.60;;;;;;;-1.06;82.20;101871.69;5067844;28;20029;-68
2024/01/10 07:11:59;;;;;;;14.45;2.72;;;;;;;-1.07;81.88;101876.84;5067999;28;20036;-68
2024/01/10 07:14:24;;;;;;;7.07;1.90;;;;;;;-1.08;82.92;101878.56;5067706;28;20074;-69
2024/01/10 07:16:50;;;;;;;7.50;2.28;;;;;;;-1.12;83.25;101881.22;5069299;28;20040;-68
2024/01/10 07:19:15;;;;;;;10.05;3.22;;;;;;;-1.15;83.09;101891.53;5069802;28;20044;-68
2024/01/10 07:21:41;;;;;;;5.68;2.22;;;;;;;-1.13;82.07;101892.34;5069048;28;20075;-68
2024/01/10 07:24:10;;;;;;;6.70;2.42;;;;;;;-1.07;82.23;101880.25;5068890;28;20039;-68
2024/01/10 07:26:36;;;;;;;5.13;2.75;;;;;;;-1.05;83.43;101880.22;5066360;28;20466;-68
2024/01/10 07:29:02;;;;;;;10.82;3.15;;;;;;;-1.07;83.85;101885.38;5068506;28;20032;-68
2024/01/10 07:31:29;;;;;;;6.93;2.50;;;;;;;-1.04;82.30;101895.53;5068804;28;20128;-68
2024/01/10 07:33:56;;;;;;;8.30;3.05;;;;;;;-0.99;83.38;101892.03;5068715;28;20048;-68
2024/01/10 07:36:26;;;;;;;5.75;2.15;;;;;;;-0.95;84.22;101893.63;5069523;28;20029;-68
2024/01/10 07:38:52;;;;;;;7.00;2.30;;;;;;;-0.90;84.59;101896.88;5066083;28;20032;-68
2024/01/10 07:41:18;;;;;;;10.10;3.17;;;;;;;-0.84;84.91;101896.75;5065288;28;20115;-68
2024/01/10 07:43:43;;;;;;;7.43;2.83;;;;;;;-0.83;85.01;101895.88;5067697;28;20059;-69
2024/01/10 07:46:09;;;;;;;8.07;3.35;;;;;;;-0.76;82.17;101900.81;5064775;28;20382;-68
2024/01/10 07:48:35;;;;;;;9.02;3.65;;;;;;;-0.66;84.08;101898.88;5067482;28;20036;-69
2024/01/10 07:51:01;;;;;;;12.88;4.25;;;;;;;-0.57;82.32;101900.34;5071135;28;20033;-69
2024/01/10 07:53:26;;;;;;;15.50;2.85;;;;;;;-0.47;81.79;101900.06;5071836;28;20032;-69
2024/01/10 07:55:52;;;;;;;7.22;2.80;;;;;;;-0.38;82.84;101902.38;5070267;28;20081;-69
2024/01/10 07:58:18;;;;;;;8.93;3.30;;;;;;;-0.36;83.10;101910.88;5070331;28;20032;-69
2024/01/10 08:00:44;;;;;;;5.95;1.67;;;;;;;-0.29;82.72;101905.59;5074837;28;20424;-69
2024/01/10 08:03:10;;;;;;;6.85;2.25;;;;;;;-0.22;82.74;101917.38;5071928;28;20032;-70
2024/01/10 08:05:35;;;;;;;5.30;2.03;;;;;;;-0.11;83.02;101917.91;5070891;28;20107;-69
2024/01/10 08:08:01;;;;;;;9.80;3.53;;;;;;;0.00;80.78;101936.41;5075282;28;20191;-68
2024/01/10 08:10:27;;;;;;;7.03;2.95;;;;;;;0.09;81.05;101925.03;5071266;28;20028;-69
2024/01/10 08:12:53;;;;;;;8.35;2.53;;;;;;;0.12;81.80;101928.38;5069387;28;20036;-68
2024/01/10 08:15:19;;;;;;;8.10;2.65;;;;;;;0.13;82.24;101918.97;5069212;28;20037;-69
2024/01/10 08:17:45;;;;;;;8.02;2.58;;;;;;;0.16;79.48;101929.97;5071218;28;20036;-68
2024/01/10 08:20:10;;;;;;;7.72;2.50;;;;;;;0.27;81.54;101927.94;5072963;28;20054;-68
2024/01/10 08:22:37;;;;;;;7.68;2.92;;;;;;;0.31;82.01;101938.97;5069523;28;20044;-69
2024/01/10 08:25:03;;;;;;;11.52;4.10;;;;;;;0.41;80.33;101932.69;5070626;28;20377;-68
2024/01/10 08:27:28;;;;;;;10.27;4.88;;;;;;;0.50;79.41;101942.66;5071005;28;20048;-69
2024/01/10 08:29:53;;;;;;;15.75;4.65;;;;;;;0.57;79.76;101936.47;5071542;28;20036;-69
2024/01/10 08:32:21;;;;;;;6.03;1.45;;;;;;;0.58;80.05;101921.91;5070665;28;20037;-69
2024/01/10 08:34:48;;;;;;;17.35;6.35;;;;;;;0.56;80.16;101931.38;5074703;28;20029;-69
2024/01/10 08:37:14;;;;;;;11.48;5.10;;;;;;;0.58;81.00;101932.19;5069155;28;20035;-68
2024/01/10 08:39:39;;;;;;;7.40;1.95;;;;;;;0.61;80.69;101925.25;5068169;28;20036;-68
2024/01/10 08:42:05;;;;;;;8.50;2.63;;;;;;;0.70;79.66;101925.84;5071058;28;20024;-69
2024/01/10 08:44:30;;;;;;;8.82;2.30;;;;;;;0.72;78.38;101922.34;5070560;28;20024;-69
2024/01/10 08:46:55;;;;;;;7.05;2.67;;;;;;;0.78;79.37;101918.75;5071532;28;20105;-68
2024/01/10 08:49:21;;;;;;;12.13;3.10;;;;;;;0.80;79.60;101922.97;5071152;28;20041;-69
2024/01/10 08:51:46;;;;;;;8.88;2.55;;;;;;;0.86;78.90;101924.50;5070597;28;20485;-68
2024/01/10 08:54:16;;;;;;;7.72;2.45;;;;;;;0.93;79.66;101938.84;5070043;28;20047;-68
2024/01/10 08:56:43;;;;;;;5.07;2.00;;;;;;;1.02;79.03;101928.25;5069224;28;20040;-69
2024/01/10 08:59:10;;;;;;;10.90;3.80;;;;;;;1.09;79.90;101934.03;5071937;28;20043;-69
2024/01/10 09:01:38;;;;;;;9.80;3.00;;;;;;;1.13;77.69;101927.94;5070771;28;20327;-68
2024/01/10 09:04:04;;;;;;;8.55;2.15;;;;;;;1.17;78.57;101930.34;5070617;28;20510;-68
2024/01/10 09:06:31;;;;;;;6.32;1.52;;;;;;;1.23;77.37;101935.28;5070391;28;20480;-68
2024/01/10 09:08:57;;;;;;;8.40;1.88;;;;;;;1.39;74.33;101935.63;5071006;28;20021;-68
2024/01/10 09:11:22;;;;;;;3.90;1.38;;;;;;;1.49;76.47;101939.56;5067564;28;20031;-68
2024/01/10 09:13:49;;;;;;;5.75;1.75;;;;;;;1.49;76.87;101936.16;5065269;28;20047;-68
2024/01/10 09:16:15;;;;;;;6.30;1.67;;;;;;;1.49;77.70;101925.88;5068384;28;20500;-68
2024/01/10 09:18:40;;;;;;;4.53;1.35;;;;;;;1.50;77.89;101927.56;5067171;28;20363;-68
2024/01/10 09:21:06;;;;;;;6.18;1.55;;;;;;;1.54;77.06;101924.84;5069939;28;20032;-68
2024/01/10 09:23:31;;;;;;;4.22;1.02;;;;;;;1.62;77.39;101924.59;5066927;28;20067;-68
2024/01/10 09:25:57;;;;;;;4.85;1.35;;;;;;;1.70;77.79;101919.19;5069715;28;20037;-68
2024/01/10 09:28:23;;;;;;;3.17;1.27;;;;;;;1.73;75.84;101916.50;5070933;28;20028;-68
2024/01/10 09:30:48;;;;;;;3.72;1.42;;;;;;;1.78;76.88;101917.19;5068912;28;20497;-67
2024/01/10 09:33:14;;;;;;;4.97;1.13;;;;;;;1.91;76.50;101918.44;5069869;28;20087;-69
2024/01/10 09:35:40;;;;;;;3.88;1.25;;;;;;;1.96;76.09;101919.09;5067191;28;20119;-68
2024/01/10 09:38:05;;;;;;;6.38;1.45;;;;;;;1.99;76.74;101909.56;5064914;28;20055;-68
2024/01/10 09:40:31;;;;;;;6.72;1.42;;;;;;;2.04;77.15;101913.69;5069232;28;20025;-68
2024/01/10 09:42:57;;;;;;;5.43;1.45;;;;;;;2.07;76.88;101903.31;5069861;28;20062;-68
2024/01/10 09:45:24;;;;;;;4.28;0.93;;;;;;;2.11;76.88;101907.44;5070644;28;20029;-68
2024/01/10 09:47:54;;;;;;;5.25;1.98;;;;;;;2.14;75.54;101912.47;5068643;28;20032;-68
2024/01/10 09:50:20;;;;;;;4.15;1.45;;;;;;;2.16;67.37;101903.81;5068672;28;20135;-68
2024/01/10 09:53:06;;;;;;;4.28;1.17;;;;;;;2.26;70.70;101901.75;5068736;28;20025;-68
2024/01/10 09:55:35;;;;;;;3.53;1.35;;;;;;;2.37;67.62;101911.63;5065130;28;20036;-68
2024/01/10 09:58:10;;;;;;;2.55;0.93;;;;;;;2.46;66.55;101909.53;5069274;28;20035;-68
2024/01/10 10:00:36;;;;;;;2.60;0.85;;;;;;;2.44;70.88;101911.34;5067088;28;20047;-68
2024/01/10 10:03:04;;;;;;;5.30;1.85;;;;;;;2.48;65.90;101901.78;5067285;28;20371;-67
2024/01/10 10:05:30;;;;;;;3.97;1.25;;;;;;;2.49;66.99;101894.00;5064214;28;20043;-68
2024/01/10 10:07:57;;;;;;;5.32;1.05;;;;;;;2.51;72.49;101896.50;5069460;28;20028;-68
2024/01/10 10:10:23;;;;;;;3.63;1.08;;;;;;;2.48;73.79;101894.06;5070328;28;20036;-68
2024/01/10 10:12:52;;;;;;;5.15;1.83;;;;;;;2.45;73.44;101896.75;5069070;28;20032;-68
2024/01/10 10:15:21;;;;;;;3.75;1.10;;;;;;;2.46;74.05;101888.13;5074522;28;20047;-68
2024/01/10 10:17:48;;;;;;;1.88;0.60;;;;;;;2.50;74.83;101892.25;5069180;28;20039;-68
2024/01/10 10:20:36;;;;;;;6.05;2.60;;;;;;;2.51;70.43;101886.22;5070106;28;20121;-69
2024/01/10 10:23:12;;;;;;;4.50;1.67;;;;;;;2.64;73.25;101892.59;5071008;28;20029;-68
2024/01/10 10:25:45;;;;;;;3.53;1.02;;;;;;;2.66;73.45;101885.63;5068873;28;20035;-68
2024/01/10 10:28:11;;;;;;;2.53;0.82;;;;;;;2.66;74.17;101876.19;5064897;28;20108;-68
2024/01/10 10:30:36;;;;;;;3.30;1.25;;;;;;;2.68;74.57;101878.69;5069386;28;20047;-68
2024/01/10 10:33:03;;;;;;;4.70;0.77;;;;;;;2.70;74.27;101879.47;5069594;28;20516;-68
2024/01/10 10:35:28;;;;;;;2.35;0.68;;;;;;;2.81;73.57;101884.22;5069073;28;20039;-68
2024/01/10 10:37:54;;;;;;;4.47;0.70;;;;;;;2.86;73.66;101882.25;5068267;28;20044;-67
2024/01/10 10:40:21;;;;;;;2.97;0.93;;;;;;;2.89;74.25;101887.28;5068549;28;20110;-68
2024/01/10 10:42:53;;;;;;;2.83;0.80;;;;;;;2.92;74.79;101882.88;5069804;28;20047;-68
2024/01/10 10:45:19;;;;;;;2.65;0.75;;;;;;;2.99;74.52;101879.16;5068595;28;20500;-68
2024/01/10 10:47:49;;;;;;;5.13;1.27;;;;;;;3.00;73.23;101880.81;5064515;28;20047;-68
2024/01/10 10:50:25;;;;;;;3.05;0.70;;;;;;;2.98;68.63;101874.06;5067818;28;20025;-68
2024/01/10 10:52:51;;;;;;;2.40;0.90;;;;;;;3.01;70.14;101868.78;5069965;28;20036;-67
2024/01/10 10:55:19;;;;;;;3.88;0.73;;;;;;;3.09;69.88;101882.19;5068974;28;20033;-67
2024/01/10 10:57:48;;;;;;;1.60;0.65;;;;;;;3.21;70.92;101878.28;5066118;28;20131;-67
2024/01/10 11:00:17;;;;;;;4.28;1.13;;;;;;;3.21;69.86;101878.28;5068607;28;20058;-67
2024/01/10 11:02:45;;;;;;;3.28;0.70;;;;;;;3.21;70.83;101870.56;5067269;28;20136;-67
2024/01/10 11:05:11;;;;;;;5.72;1.40;;;;;;;3.21;71.40;101862.84;5064788;28;20103;-66
2024/01/10 11:07:43;;;;;;;3.67;1.05;;;;;;;3.25;69.75;101860.06;5062071;28;20029;-67
2024/01/10 11:10:36;;;;;;;3.45;0.88;;;;;;;3.40;71.39;101857.72;5063015;28;20040;-68
2024/01/10 11:13:36;;;;;;;5.55;1.00;;;;;;;3.49;69.24;101850.44;5066083;28;20044;-67
2024/01/10 11:16:25;;;;;;;7.35;1.08;;;;;;;3.59;68.90;101832.88;5003238;28;20126;-67
2024/01/10 11:19:21;;;;;;;3.47;0.68;;;;;;;3.65;68.84;101842.91;5005387;28;20107;-67
2024/01/10 11:22:21;;;;;;;3.53;1.17;;;;;;;3.73;68.26;101846.00;5004102;28;20050;-67
2024/01/10 11:24:46;;;;;;;7.13;1.48;;;;;;;3.78;63.44;101844.03;5006050;28;20030;-67